createdAt,value
2023-01-13T00:01:17.469Z,5.50
2023-01-13T00:03:43.816Z,6.00
2023-01-13T00:06:10.181Z,4.67
2023-01-13T00:08:36.566Z,4.00
2023-01-13T00:11:02.940Z,5.00
2023-01-13T00:16:23.027Z,4.33
2023-01-13T00:18:49.488Z,5.00
2023-01-13T00:21:15.850Z,4.33
2023-01-13T00:23:42.256Z,5.00
2023-01-13T00:26:09.501Z,3.50
2023-01-13T00:31:29.816Z,5.00
2023-01-13T00:33:56.299Z,4.00
2023-01-13T00:36:22.728Z,3.33
2023-01-13T00:38:49.105Z,4.67
2023-01-13T00:41:15.488Z,4.67
2023-01-13T00:46:25.990Z,4.67
2023-01-13T00:48:52.398Z,4.00
2023-01-13T00:51:18.995Z,4.00
2023-01-13T00:53:45.426Z,4.00
2023-01-13T00:56:12.667Z,3.50
2023-01-13T01:01:33.049Z,4.67
2023-01-13T01:03:59.571Z,5.00
2023-01-13T01:06:25.952Z,4.00
2023-01-13T01:08:52.343Z,3.00
2023-01-13T01:11:19.562Z,4.00
2023-01-13T01:16:29.742Z,4.00
2023-01-13T01:18:56.161Z,4.00
2023-01-13T01:21:22.561Z,4.00
2023-01-13T01:23:48.920Z,3.67
2023-01-13T01:26:15.323Z,4.00
2023-01-13T01:31:35.648Z,4.33
2023-01-13T01:34:02.099Z,3.00
2023-01-13T01:36:28.590Z,3.00
2023-01-13T01:38:54.984Z,3.33
2023-01-13T01:41:21.359Z,3.00
2023-01-13T01:46:42.284Z,4.00
2023-01-13T01:49:08.719Z,4.33
2023-01-13T01:51:35.074Z,4.00
2023-01-13T01:54:01.457Z,3.67
2023-01-13T01:56:27.830Z,4.33
2023-01-13T02:01:48.239Z,1.00
2023-01-13T02:04:15.591Z,4.25
2023-01-13T02:06:41.943Z,4.00
2023-01-13T02:09:08.269Z,3.00
2023-01-13T02:11:34.707Z,3.00
2023-01-13T02:16:45.001Z,4.00
2023-01-13T02:19:12.282Z,3.50
2023-01-13T02:21:38.659Z,3.00
2023-01-13T02:24:05.065Z,3.00
2023-01-13T02:26:31.441Z,3.00
2023-01-13T02:31:51.869Z,3.00
2023-01-13T02:34:18.275Z,5.00
2023-01-13T02:36:44.620Z,2.00
2023-01-13T02:39:11.060Z,4.00
2023-01-13T02:41:37.439Z,4.00
2023-01-13T02:46:47.769Z,3.00
2023-01-13T02:49:14.232Z,3.00
2023-01-13T02:51:40.582Z,2.33
2023-01-13T02:54:06.963Z,3.00
2023-01-13T02:56:33.335Z,2.33
2023-01-13T02:58:59.693Z,3.33
2023-01-13T03:01:26.139Z,3.00
2023-01-13T03:03:52.603Z,2.67
2023-01-13T03:06:18.977Z,3.33
2023-01-13T03:08:45.292Z,3.00
2023-01-13T03:11:11.722Z,3.00
2023-01-13T03:13:38.092Z,3.00
2023-01-13T03:16:04.469Z,2.33
2023-01-13T03:18:30.816Z,4.00
2023-01-13T03:20:57.160Z,3.00
2023-01-13T03:23:23.518Z,3.00
2023-01-13T03:25:49.867Z,3.00
2023-01-13T03:28:16.217Z,3.00
2023-01-13T03:30:42.600Z,3.00
2023-01-13T03:33:09.071Z,3.00
2023-01-13T03:35:35.407Z,3.00
2023-01-13T03:38:01.752Z,2.67
2023-01-13T03:40:28.066Z,2.00
2023-01-13T03:42:54.420Z,2.67
2023-01-13T03:45:20.750Z,2.00
2023-01-13T03:47:47.092Z,3.00
2023-01-13T03:50:13.425Z,2.33
2023-01-13T03:52:39.768Z,2.00
2023-01-13T03:55:06.142Z,3.00
2023-01-13T03:57:32.496Z,3.00
2023-01-13T03:59:58.884Z,2.67
2023-01-13T04:05:09.301Z,2.00
2023-01-13T04:07:35.652Z,3.00
2023-01-13T04:10:02.214Z,3.00
2023-01-13T04:12:28.642Z,2.00
2023-01-13T04:14:54.997Z,2.67
2023-01-13T04:20:15.408Z,3.00
2023-01-13T04:22:41.757Z,3.00
2023-01-13T04:25:08.077Z,2.00
2023-01-13T04:27:34.486Z,3.00
2023-01-13T04:30:00.829Z,2.00
2023-01-13T04:35:10.930Z,3.00
2023-01-13T04:37:37.284Z,3.00
2023-01-13T04:40:03.680Z,3.00
2023-01-13T04:42:30.007Z,3.33
2023-01-13T04:44:56.348Z,3.00
2023-01-13T04:50:16.410Z,2.33
2023-01-13T04:52:42.818Z,2.67
2023-01-13T04:55:09.178Z,2.33
2023-01-13T04:57:35.503Z,2.00
2023-01-13T05:00:01.839Z,2.67
2023-01-13T05:05:12.303Z,4.00
2023-01-13T05:07:38.646Z,2.67
2023-01-13T05:10:05.046Z,2.00
2023-01-13T05:12:31.389Z,2.33
2023-01-13T05:14:57.733Z,3.00
2023-01-13T05:20:17.909Z,2.00
2023-01-13T05:22:44.268Z,2.00
2023-01-13T05:25:10.616Z,3.00
2023-01-13T05:27:36.940Z,2.67
2023-01-13T05:30:03.301Z,3.00
2023-01-13T05:35:13.614Z,3.33
2023-01-13T05:37:40.000Z,3.00
2023-01-13T05:40:06.438Z,3.67
2023-01-13T05:42:32.775Z,3.33
2023-01-13T05:44:59.128Z,2.67
2023-01-13T05:50:21.577Z,23.67
2023-01-13T05:52:48.000Z,12.00
2023-01-13T05:55:15.317Z,11.00
2023-01-13T05:57:42.553Z,11.00
2023-01-13T06:00:09.919Z,7.00
2023-01-13T06:05:30.657Z,11.00
2023-01-13T06:07:57.217Z,12.00
2023-01-13T06:10:23.620Z,10.00
2023-01-13T06:12:50.889Z,12.00
2023-01-13T06:15:17.281Z,10.00
2023-01-13T06:20:28.908Z,11.00
2023-01-13T06:22:55.319Z,9.00
2023-01-13T06:25:22.559Z,10.00
2023-01-13T06:27:50.845Z,9.00
2023-01-13T06:30:17.518Z,11.00
2023-01-13T06:35:42.021Z,11.00
2023-01-13T06:38:09.350Z,11.00
2023-01-13T06:40:36.688Z,13.00
2023-01-13T06:43:03.946Z,10.67
2023-01-13T06:45:30.541Z,13.50
2023-01-13T06:50:43.334Z,16.67
2023-01-13T06:53:12.819Z,17.50
2023-01-13T06:55:40.552Z,16.00
2023-01-13T06:58:08.132Z,16.00
2023-01-13T07:00:34.620Z,16.00
2023-01-13T07:05:55.993Z,13.00
2023-01-13T07:08:22.454Z,14.50
2023-01-13T07:10:48.900Z,16.00
2023-01-13T07:13:16.385Z,14.00
2023-01-13T07:15:42.846Z,14.00
2023-01-13T07:20:53.162Z,13.00
2023-01-13T07:23:19.611Z,12.50
2023-01-13T07:25:46.079Z,11.00
2023-01-13T07:28:13.411Z,13.00
2023-01-13T07:30:39.827Z,11.00
2023-01-13T07:33:07.142Z,10.67
2023-01-13T07:35:34.379Z,11.67
2023-01-13T07:38:01.686Z,13.00
2023-01-13T07:40:29.043Z,12.00
2023-01-13T07:42:55.507Z,12.00
2023-01-13T07:45:21.934Z,14.00
2023-01-13T07:47:48.387Z,12.00
2023-01-13T07:50:15.750Z,10.67
2023-01-13T07:52:42.166Z,13.00
2023-01-13T07:55:09.663Z,11.00
2023-01-13T07:57:36.090Z,12.00
2023-01-13T08:00:03.951Z,11.33
2023-01-13T08:02:30.532Z,11.00
2023-01-13T08:04:57.940Z,13.00
2023-01-13T08:07:24.472Z,13.00
2023-01-13T08:09:50.898Z,12.00
2023-01-13T08:12:17.309Z,10.50
2023-01-13T08:14:43.815Z,11.00
2023-01-13T08:17:11.158Z,12.67
2023-01-13T08:19:37.622Z,10.50
2023-01-13T08:22:05.960Z,9.60
2023-01-13T08:24:33.220Z,9.67
2023-01-13T08:27:01.576Z,10.40
2023-01-13T08:29:30.765Z,10.50
2023-01-13T08:31:58.021Z,11.67
2023-01-13T08:34:26.314Z,8.80
2023-01-13T08:36:53.577Z,10.67
2023-01-13T08:39:20.058Z,9.00
2023-01-13T08:41:48.364Z,10.00
2023-01-13T08:44:14.846Z,9.50
2023-01-13T08:46:41.358Z,9.00
2023-01-13T08:49:07.790Z,10.00
2023-01-13T08:54:19.836Z,8.00
2023-01-13T08:56:46.342Z,11.00
2023-01-13T08:59:14.677Z,9.40
2023-01-13T09:01:41.219Z,10.00
2023-01-13T09:04:07.901Z,9.50
2023-01-13T09:09:21.020Z,10.33
2023-01-13T09:11:48.281Z,10.00
2023-01-13T09:14:14.661Z,11.00
2023-01-13T09:16:41.154Z,10.00
2023-01-13T09:19:08.413Z,10.67
2023-01-13T09:24:29.731Z,11.00
2023-01-13T09:26:56.163Z,12.00
2023-01-13T09:29:23.410Z,12.33
2023-01-13T09:31:49.961Z,11.50
2023-01-13T09:34:17.237Z,12.00
2023-01-13T09:39:28.301Z,10.00
2023-01-13T09:41:54.732Z,12.50
2023-01-13T09:44:21.176Z,13.00
2023-01-13T09:46:47.648Z,13.00
2023-01-13T09:49:14.338Z,15.00
2023-01-13T09:54:26.285Z,13.00
2023-01-13T09:56:53.530Z,11.67
2023-01-13T09:59:19.964Z,12.50
2023-01-13T10:01:46.403Z,11.50
2023-01-13T10:04:13.697Z,12.67
2023-01-13T10:09:34.905Z,12.00
2023-01-13T10:12:01.395Z,11.00
2023-01-13T10:14:28.667Z,12.33
2023-01-13T10:16:55.189Z,10.00
2023-01-13T10:19:22.454Z,13.00
2023-01-13T10:24:43.758Z,11.00
2023-01-13T10:27:10.401Z,10.00
2023-01-13T10:29:37.665Z,13.00
2023-01-13T10:32:04.967Z,14.00
2023-01-13T10:34:32.256Z,13.00
2023-01-13T10:39:43.373Z,11.00
2023-01-13T10:42:10.639Z,14.00
2023-01-13T10:44:37.094Z,13.00
2023-01-13T10:47:04.381Z,13.00
2023-01-13T10:49:30.851Z,16.00
2023-01-13T10:54:41.525Z,15.00
2023-01-13T10:57:08.834Z,16.67
2023-01-13T10:59:36.192Z,15.67
2023-01-13T11:02:10.199Z,16.50
2023-01-13T11:04:47.161Z,14.67
2023-01-13T11:09:58.551Z,14.00
2023-01-13T11:12:25.018Z,16.50
2023-01-13T11:14:52.361Z,14.00
2023-01-13T11:17:19.748Z,20.00
2023-01-13T11:19:47.177Z,16.67
2023-01-13T11:24:57.855Z,16.00
2023-01-13T11:27:25.231Z,17.00
2023-01-13T11:29:52.587Z,17.00
2023-01-13T11:32:20.025Z,18.00
2023-01-13T11:34:46.491Z,19.00
2023-01-13T11:39:56.809Z,18.50
2023-01-13T11:42:23.371Z,17.00
2023-01-13T11:44:49.854Z,19.00
2023-01-13T11:47:17.246Z,16.50
2023-01-13T11:49:43.729Z,18.00
2023-01-13T11:54:55.196Z,14.67
2023-01-13T11:57:22.615Z,16.67
2023-01-13T11:59:49.995Z,17.67
2023-01-13T12:02:17.483Z,15.00
2023-01-13T12:04:44.073Z,15.00
2023-01-13T12:07:11.499Z,15.67
2023-01-13T12:09:37.963Z,14.00
2023-01-13T12:12:05.353Z,15.67
2023-01-13T12:14:31.811Z,14.00
2023-01-13T12:17:01.122Z,13.67
2023-01-13T12:19:27.837Z,15.00
2023-01-13T12:21:54.320Z,16.00
2023-01-13T12:24:20.770Z,14.50
2023-01-13T12:26:47.270Z,16.00
2023-01-13T12:29:13.709Z,15.00
2023-01-13T12:31:40.197Z,19.00
2023-01-13T12:34:07.613Z,13.67
2023-01-13T12:36:36.105Z,116.00
2023-01-13T12:39:04.529Z,63.00
2023-01-13T12:41:32.862Z,52.33
2023-01-13T12:44:01.182Z,53.33
2023-01-13T12:46:29.427Z,46.33
2023-01-13T12:48:57.705Z,41.00
2023-01-13T12:51:24.208Z,37.50
2023-01-13T12:53:51.688Z,35.67
2023-01-13T12:56:19.167Z,35.00
2023-01-13T12:58:45.659Z,33.50
2023-01-13T13:01:13.189Z,31.00
2023-01-13T13:03:39.760Z,29.00
2023-01-13T13:06:07.209Z,26.67
2023-01-13T13:08:34.637Z,25.67
2023-01-13T13:11:02.088Z,25.33
2023-01-13T13:13:28.613Z,25.50
2023-01-13T13:15:55.089Z,22.00
2023-01-13T13:18:21.570Z,22.00
2023-01-13T13:20:48.151Z,23.00
2023-01-13T13:23:15.564Z,20.00
2023-01-13T13:28:26.040Z,18.50
2023-01-13T13:30:52.533Z,18.50
2023-01-13T13:33:20.020Z,19.50
2023-01-13T13:35:47.425Z,27.00
2023-01-13T13:38:15.728Z,42.33
2023-01-13T13:43:37.362Z,34.50
2023-01-13T13:46:03.890Z,34.00
2023-01-13T13:48:30.428Z,32.00
2023-01-13T13:50:57.208Z,33.50
2023-01-13T13:53:24.687Z,30.00
2023-01-13T13:58:45.398Z,29.00
2023-01-13T14:01:11.978Z,31.00
2023-01-13T14:03:40.309Z,27.67
2023-01-13T14:06:07.790Z,25.33
2023-01-13T14:08:34.287Z,25.00
2023-01-13T14:13:55.896Z,22.50
2023-01-13T14:16:22.376Z,19.00
2023-01-13T14:18:48.840Z,15.50
2023-01-13T14:21:16.534Z,16.67
2023-01-13T14:23:43.010Z,18.00
2023-01-13T14:28:54.462Z,15.00
2023-01-13T14:31:20.987Z,14.00
2023-01-13T14:33:47.493Z,11.50
2023-01-13T14:36:13.958Z,12.50
2023-01-13T14:38:41.371Z,12.33
2023-01-13T14:43:52.662Z,12.50
2023-01-13T14:46:20.013Z,12.33
2023-01-13T14:48:47.299Z,10.33
2023-01-13T14:51:13.757Z,11.00
2023-01-13T14:53:40.183Z,9.50
2023-01-13T14:59:02.621Z,12.00
2023-01-13T15:01:29.324Z,10.00
2023-01-13T15:03:57.775Z,12.00
2023-01-13T15:06:24.225Z,12.00
2023-01-13T15:08:51.502Z,10.00
2023-01-13T15:14:02.722Z,11.67
2023-01-13T15:16:29.228Z,10.00
2023-01-13T15:18:57.550Z,10.20
2023-01-13T15:21:27.536Z,9.71
2023-01-13T15:23:54.792Z,9.67
2023-01-13T15:29:15.478Z,9.00
2023-01-13T15:31:44.681Z,10.50
2023-01-13T15:34:13.251Z,10.00
2023-01-13T15:36:39.692Z,9.50
2023-01-13T15:39:08.004Z,9.40
2023-01-13T15:44:29.186Z,8.75
2023-01-13T15:46:57.616Z,8.00
2023-01-13T15:49:24.002Z,7.33
2023-01-13T15:51:53.957Z,9.14
2023-01-13T15:54:20.451Z,9.00
2023-01-13T15:59:34.632Z,9.40
2023-01-13T16:02:02.905Z,8.60
2023-01-13T16:04:29.336Z,8.00
2023-01-13T16:06:55.812Z,8.00
2023-01-13T16:09:25.172Z,8.50
2023-01-13T16:14:35.674Z,9.00
2023-01-13T16:17:02.158Z,8.00
2023-01-13T16:19:30.471Z,9.40
2023-01-13T16:21:56.945Z,10.00
2023-01-13T16:24:26.127Z,8.67
2023-01-13T16:29:49.535Z,8.00
2023-01-13T16:32:16.141Z,9.00
2023-01-13T16:34:45.335Z,9.67
2023-01-13T16:37:13.650Z,8.00
2023-01-13T16:39:41.920Z,8.60
2023-01-13T16:44:54.073Z,8.00
2023-01-13T16:47:22.393Z,9.40
2023-01-13T16:49:49.874Z,8.50
2023-01-13T16:52:18.138Z,7.40
2023-01-13T16:54:45.411Z,8.00
2023-01-13T17:00:06.148Z,9.50
2023-01-13T17:02:32.579Z,8.50
2023-01-13T17:04:59.012Z,7.00
2023-01-13T17:07:25.437Z,8.00
2023-01-13T17:09:51.886Z,8.00
2023-01-13T17:15:04.021Z,8.60
2023-01-13T17:17:33.208Z,8.83
2023-01-13T17:19:59.913Z,8.50
2023-01-13T17:22:26.444Z,9.00
2023-01-13T17:24:54.761Z,8.00
2023-01-13T17:30:15.350Z,7.50
2023-01-13T17:32:41.846Z,7.00
2023-01-13T17:35:08.287Z,8.00
2023-01-13T17:37:35.669Z,14.00
2023-01-13T17:40:02.977Z,13.00
2023-01-13T17:45:14.290Z,12.00
2023-01-13T17:47:43.464Z,9.00
2023-01-13T17:50:10.115Z,10.00
2023-01-13T17:52:36.618Z,7.00
2023-01-13T17:55:03.078Z,8.00
2023-01-13T17:57:29.580Z,8.00
2023-01-13T17:59:55.940Z,6.00
2023-01-13T18:02:22.642Z,8.00
2023-01-13T18:04:49.163Z,7.00
2023-01-13T18:07:15.550Z,7.00
2023-01-13T18:09:41.915Z,4.67
2023-01-13T18:12:09.196Z,8.00
2023-01-13T18:14:36.771Z,8.00
2023-01-13T18:17:03.272Z,8.00
2023-01-13T18:19:29.905Z,10.00
2023-01-13T18:21:56.338Z,6.00
2023-01-13T18:24:22.766Z,8.50
2023-01-13T18:26:49.119Z,2.00
2023-01-13T18:29:15.487Z,3.50
2023-01-13T18:31:41.804Z,6.00
2023-01-13T18:34:08.158Z,4.33
2023-01-13T18:36:34.529Z,4.67
2023-01-13T18:39:00.874Z,6.00
2023-01-13T18:41:27.226Z,4.67
2023-01-13T18:43:53.596Z,4.67
2023-01-13T18:46:19.957Z,3.00
2023-01-13T18:48:46.355Z,4.00
2023-01-13T18:51:12.869Z,3.00
2023-01-13T18:53:39.218Z,3.00
2023-01-13T18:56:05.577Z,2.33
2023-01-13T18:58:31.953Z,2.33
2023-01-13T19:00:58.356Z,3.33
2023-01-13T19:03:29.935Z,4.67
2023-01-13T19:05:57.004Z,3.00
2023-01-13T19:08:23.360Z,3.33
2023-01-13T19:10:49.737Z,3.00
2023-01-13T19:13:16.083Z,3.33
2023-01-13T19:18:36.644Z,2.67
2023-01-13T19:21:03.202Z,3.67
2023-01-13T19:23:29.825Z,3.00
2023-01-13T19:25:56.169Z,3.00
2023-01-13T19:28:22.538Z,3.67
2023-01-13T19:33:32.904Z,2.00
2023-01-13T19:35:59.230Z,2.00
2023-01-13T19:38:25.574Z,2.00
2023-01-13T19:40:51.919Z,3.00
2023-01-13T19:43:19.122Z,2.00
2023-01-13T19:48:29.518Z,2.00
2023-01-13T19:50:55.842Z,3.00
2023-01-13T19:53:22.349Z,3.67
2023-01-13T19:55:48.677Z,2.33
2023-01-13T19:58:15.016Z,3.00
2023-01-13T20:03:35.666Z,3.00
2023-01-13T20:06:02.022Z,3.00
2023-01-13T20:08:28.362Z,3.67
2023-01-13T20:10:54.722Z,3.00
2023-01-13T20:13:21.088Z,3.00
2023-01-13T20:18:41.213Z,3.00
2023-01-13T20:21:07.772Z,3.00
2023-01-13T20:23:34.131Z,3.00
2023-01-13T20:26:00.472Z,3.00
2023-01-13T20:28:26.811Z,2.67
2023-01-13T20:33:37.184Z,1.00
2023-01-13T20:36:03.500Z,1.33
2023-01-13T20:38:29.873Z,3.00
2023-01-13T20:40:58.964Z,1.00
2023-01-13T20:43:25.329Z,2.00
2023-01-13T20:48:35.510Z,2.00
2023-01-13T20:51:01.840Z,2.00
2023-01-13T20:53:28.183Z,1.33
2023-01-13T20:55:54.539Z,1.67
2023-01-13T20:58:20.902Z,1.67
2023-01-13T21:03:41.357Z,1.33
2023-01-13T21:06:07.901Z,2.00
2023-01-13T21:08:34.238Z,1.67
2023-01-13T21:11:00.513Z,1.00
2023-01-13T21:13:27.970Z,2.00
2023-01-13T21:18:38.426Z,1.00
2023-01-13T21:21:04.773Z,2.00
2023-01-13T21:23:31.265Z,1.00
2023-01-13T21:26:00.381Z,1.00
2023-01-13T21:28:26.718Z,1.00
2023-01-13T21:33:47.075Z,1.67
2023-01-13T21:36:13.379Z,1.00
2023-01-13T21:38:39.744Z,2.00
2023-01-13T21:41:06.244Z,1.00
2023-01-13T21:43:35.347Z,1.00
2023-01-13T21:48:50.953Z,1.00
2023-01-13T21:51:17.423Z,1.00
2023-01-13T21:53:46.533Z,1.00
2023-01-13T21:56:12.826Z,1.00
2023-01-13T21:58:39.131Z,1.00
2023-01-13T22:01:05.557Z,1.00
2023-01-13T22:03:34.721Z,0.83
2023-01-13T22:06:04.627Z,0.67
2023-01-13T22:08:34.178Z,0.00
2023-01-13T22:11:00.584Z,2.00
2023-01-13T22:13:26.982Z,2.00
2023-01-13T22:15:53.340Z,1.33
2023-01-13T22:18:19.706Z,2.00
2023-01-13T22:20:46.051Z,2.00
2023-01-13T22:23:12.389Z,2.00
2023-01-13T22:25:39.028Z,2.00
2023-01-13T22:28:05.548Z,4.00
2023-01-13T22:30:31.902Z,4.00
2023-01-13T22:32:59.137Z,4.25
2023-01-13T22:35:26.499Z,5.25
2023-01-13T22:37:53.731Z,2.25
2023-01-13T22:40:20.932Z,5.75
2023-01-13T22:42:47.300Z,4.67
2023-01-13T22:45:13.643Z,4.33
2023-01-13T22:47:41.000Z,4.50
2023-01-13T22:50:07.340Z,4.00
2023-01-13T22:52:34.545Z,4.75
2023-01-13T22:55:00.966Z,4.00
2023-01-13T22:57:27.430Z,14.50
2023-01-13T22:59:53.890Z,11.00
2023-01-13T23:02:21.145Z,8.00
2023-01-13T23:04:47.594Z,8.00
2023-01-13T23:07:17.367Z,7.80
2023-01-13T23:09:43.804Z,6.50
2023-01-13T23:12:10.228Z,6.50
2023-01-13T23:14:36.652Z,9.00
2023-01-13T23:17:03.093Z,7.00
2023-01-13T23:22:23.490Z,7.00
2023-01-13T23:24:49.866Z,5.00
2023-01-13T23:27:16.268Z,7.00
2023-01-13T23:29:42.617Z,6.00
2023-01-13T23:32:09.831Z,6.00
2023-01-13T23:37:20.342Z,6.50
2023-01-13T23:39:46.691Z,5.00
2023-01-13T23:42:13.023Z,6.00
2023-01-13T23:44:39.374Z,5.00
2023-01-13T23:47:05.735Z,4.00
2023-01-13T23:52:26.018Z,5.00
2023-01-13T23:54:52.432Z,5.00
2023-01-13T23:57:18.812Z,5.00
2023-01-13T23:59:45.149Z,5.00
